Time;durP1;ratioP1;P1;durP2;ratioP2;P2;SDS_P1;SDS_P2;PMS_P1;PMS_P2;Temp;Humidity;BMP_temperature;BMP_pressure;BME280_temperature;BME280_humidity;BME280_pressure;Samples;Min_cycle;Max_cycle;Signal;HPM_P1;HPM_P2
2023/04/25 03:01:23;;;;;;;;;;;19.70;52.00;;;;;;5548735;23;46547;-63
2023/04/25 03:03:48;;;;;;;;;;;19.70;52.10;;;;;;4908274;28;45386;-60
2023/04/25 03:06:15;;;;;;;;;;;19.70;52.10;;;;;;4955803;28;45208;-63
2023/04/25 03:08:40;;;;;;;;;;;19.80;52.20;;;;;;4965210;28;45477;-59
2023/04/25 03:11:06;;;;;;;;;;;19.70;52.10;;;;;;4945323;28;44966;-60
2023/04/25 03:13:31;;;;;;;;;;;19.70;52.10;;;;;;4924964;28;45465;-62
2023/04/25 03:15:57;;;;;;;;;;;19.70;52.10;;;;;;4936176;28;45794;-58
2023/04/25 03:18:22;;;;;;;;;;;19.70;52.10;;;;;;4919548;28;45809;-61
2023/04/25 03:20:48;;;;;;;;;;;19.70;52.10;;;;;;4930224;28;46396;-61
2023/04/25 03:23:13;;;;;;;;;;;19.70;52.10;;;;;;4945235;28;45800;-60
2023/04/25 03:25:39;;;;;;;;;;;19.70;52.10;;;;;;4927732;28;44768;-60
2023/04/25 03:28:04;;;;;;;;;;;19.70;52.20;;;;;;4950415;28;45540;-59
2023/04/25 03:30:30;;;;;;;;;;;19.60;52.10;;;;;;4936081;28;45863;-60
2023/04/25 03:32:55;;;;;;;;;;;19.70;52.10;;;;;;4944599;28;45275;-62
2023/04/25 03:35:21;;;;;;;;;;;19.70;52.10;;;;;;4938320;28;45325;-63
2023/04/25 03:37:46;;;;;;;;;;;19.60;52.00;;;;;;4926810;28;46759;-60
2023/04/25 03:40:12;;;;;;;;;;;19.60;52.00;;;;;;4920109;28;45143;-59
2023/04/25 03:42:37;;;;;;;;;;;19.60;52.00;;;;;;4944865;28;45478;-57
2023/04/25 03:45:03;;;;;;;;;;;19.60;52.10;;;;;;4948352;28;45580;-64
2023/04/25 03:47:28;;;;;;;;;;;19.70;52.20;;;;;;4910069;28;46521;-59
2023/04/25 03:49:54;;;;;;;;;;;19.70;52.20;;;;;;4943042;28;45340;-60
2023/04/25 03:52:20;;;;;;;;;;;19.60;52.10;;;;;;4921688;28;44987;-61
2023/04/25 03:54:45;;;;;;;;;;;19.60;52.20;;;;;;4928164;28;45674;-60
2023/04/25 03:57:11;;;;;;;;;;;19.60;52.10;;;;;;4936882;28;46245;-59
2023/04/25 03:59:36;;;;;;;;;;;19.60;52.10;;;;;;4947556;28;45193;-60
2023/04/25 04:02:02;;;;;;;;;;;19.60;52.10;;;;;;4940210;28;45679;-60
2023/04/25 04:04:28;;;;;;;;;;;19.60;52.10;;;;;;4925275;28;45268;-63
2023/04/25 04:06:53;;;;;;;;;;;19.60;52.20;;;;;;4955315;28;45801;-59
2023/04/25 04:09:20;;;;;;;;;;;19.60;52.10;;;;;;4947804;28;45137;-60
2023/04/25 04:11:45;;;;;;;;;;;19.60;52.10;;;;;;4957029;28;45587;-59
2023/04/25 04:14:11;;;;;;;;;;;19.60;52.20;;;;;;4964294;28;44810;-60
2023/04/25 04:16:36;;;;;;;;;;;19.60;52.10;;;;;;4932070;28;46069;-58
2023/04/25 04:19:02;;;;;;;;;;;19.60;52.20;;;;;;4959843;28;45047;-60
2023/04/25 04:21:27;;;;;;;;;;;19.60;52.10;;;;;;4952102;28;45252;-62
2023/04/25 04:23:54;;;;;;;;;;;19.60;52.10;;;;;;4962663;28;45507;-59
2023/04/25 04:26:23;;;;;;;;;;;19.60;52.10;;;;;;4962452;28;45472;-59
2023/04/25 04:28:50;;;;;;;;;;;19.60;52.10;;;;;;4948158;28;44920;-60
2023/04/25 04:31:15;;;;;;;;;;;19.60;52.10;;;;;;4951917;28;44974;-60
2023/04/25 04:33:41;;;;;;;;;;;19.60;52.20;;;;;;4940158;28;45596;-60
2023/04/25 04:36:07;;;;;;;;;;;19.60;52.10;;;;;;4936574;28;46821;-59
2023/04/25 04:38:32;;;;;;;;;;;19.60;52.10;;;;;;4945768;28;45045;-56
2023/04/25 04:40:58;;;;;;;;;;;19.60;52.20;;;;;;4948521;28;45312;-61
2023/04/25 04:43:24;;;;;;;;;;;19.60;52.20;;;;;;4942452;28;45287;-59
2023/04/25 04:45:50;;;;;;;;;;;19.50;52.20;;;;;;4938056;28;45725;-57
2023/04/25 04:48:16;;;;;;;;;;;19.50;52.20;;;;;;4927773;28;46026;-64
2023/04/25 04:50:47;;;;;;;;;;;19.50;52.20;;;;;;4957987;28;45315;-59
2023/04/25 04:53:12;;;;;;;;;;;19.60;52.20;;;;;;4963244;28;45473;-61
2023/04/25 04:55:38;;;;;;;;;;;19.50;52.20;;;;;;4939090;28;46852;-58
2023/04/25 04:58:03;;;;;;;;;;;19.50;52.20;;;;;;4961427;28;45248;-60
2023/04/25 05:00:29;;;;;;;;;;;19.50;52.20;;;;;;4952958;28;45919;-60
2023/04/25 05:02:57;;;;;;;;;;;19.50;52.30;;;;;;4937516;28;44800;-61
2023/04/25 05:05:23;;;;;;;;;;;19.50;52.20;;;;;;4937644;28;45471;-57
2023/04/25 05:07:49;;;;;;;;;;;19.50;52.20;;;;;;4934991;28;45378;-60
2023/04/25 05:10:15;;;;;;;;;;;19.50;52.10;;;;;;4941450;28;45584;-60
2023/04/25 05:12:40;;;;;;;;;;;19.50;52.10;;;;;;4938530;28;45607;-60
2023/04/25 05:15:06;;;;;;;;;;;19.50;52.20;;;;;;4921669;28;46760;-65
2023/04/25 05:17:32;;;;;;;;;;;19.50;52.20;;;;;;4933826;28;45438;-61
2023/04/25 05:19:58;;;;;;;;;;;19.50;52.20;;;;;;4941640;28;45430;-61
2023/04/25 05:22:23;;;;;;;;;;;19.50;52.20;;;;;;4935086;28;45512;-60
2023/04/25 05:24:51;;;;;;;;;;;19.50;52.20;;;;;;4943241;28;45327;-62
2023/04/25 05:27:17;;;;;;;;;;;19.50;52.80;;;;;;4937308;28;45172;-61
2023/04/25 05:29:42;;;;;;;;;;;19.50;52.20;;;;;;4939255;28;45557;-59
2023/04/25 05:32:09;;;;;;;;;;;19.50;52.20;;;;;;4927800;28;45622;-64
2023/04/25 05:34:34;;;;;;;;;;;19.50;52.10;;;;;;4942047;28;45612;-59
2023/04/25 05:37:00;;;;;;;;;;;19.50;52.20;;;;;;4935771;28;45728;-59
2023/04/25 05:39:26;;;;;;;;;;;19.40;52.10;;;;;;4940894;28;45347;-61
2023/04/25 05:41:51;;;;;;;;;;;19.50;52.20;;;;;;4936001;28;45271;-61
2023/04/25 05:44:17;;;;;;;;;;;19.50;52.10;;;;;;4938778;28;45252;-60
2023/04/25 05:46:42;;;;;;;;;;;19.40;52.10;;;;;;4934125;28;45135;-61
2023/04/25 05:49:08;;;;;;;;;;;19.50;52.10;;;;;;4938780;28;45706;-60
2023/04/25 05:51:33;;;;;;;;;;;19.50;51.60;;;;;;4932670;28;45266;-60
2023/04/25 05:53:59;;;;;;;;;;;19.40;49.00;;;;;;4956647;28;46451;-59
2023/04/25 05:56:24;;;;;;;;;;;19.20;47.20;;;;;;4931025;28;45307;-60
2023/04/25 05:58:50;;;;;;;;;;;18.90;46.90;;;;;;4941392;28;45349;-60
2023/04/25 06:01:15;;;;;;;;;;;18.80;47.50;;;;;;4938316;28;45586;-59
2023/04/25 06:03:42;;;;;;;;;;;18.70;47.70;;;;;;4939946;28;46594;-60
2023/04/25 06:06:08;;;;;;;;;;;18.80;48.60;;;;;;4956937;28;45300;-60
2023/04/25 06:08:34;;;;;;;;;;;19.00;48.50;;;;;;4945267;28;45505;-60
2023/04/25 06:10:59;;;;;;;;;;;19.30;48.00;;;;;;4955875;28;45544;-60
2023/04/25 06:13:25;;;;;;;;;;;19.60;47.70;;;;;;4946042;28;46342;-59
2023/04/25 06:15:50;;;;;;;;;;;19.80;47.50;;;;;;4936559;28;45362;-60
2023/04/25 06:18:16;;;;;;;;;;;20.00;47.20;;;;;;4942333;28;45684;-60
2023/04/25 06:20:41;;;;;;;;;;;20.30;47.10;;;;;;4938378;28;45402;-61
2023/04/25 06:23:07;;;;;;;;;;;20.40;46.90;;;;;;4945179;28;46166;-61
2023/04/25 06:25:32;;;;;;;;;;;20.60;46.80;;;;;;4952235;28;45547;-60
2023/04/25 06:27:58;;;;;;;;;;;20.80;46.70;;;;;;4962728;28;45324;-59
2023/04/25 06:30:25;;;;;;;;;;;20.90;46.50;;;;;;4954372;28;44793;-60
2023/04/25 06:32:51;;;;;;;;;;;21.00;46.40;;;;;;4958573;28;45626;-58
2023/04/25 06:35:16;;;;;;;;;;;21.10;46.40;;;;;;4930677;28;45070;-58
2023/04/25 06:37:42;;;;;;;;;;;21.20;46.30;;;;;;4959806;28;45579;-60
2023/04/25 06:40:08;;;;;;;;;;;21.30;46.30;;;;;;4956248;28;45775;-59
2023/04/25 06:42:33;;;;;;;;;;;21.40;46.30;;;;;;4957818;28;45567;-59
2023/04/25 06:44:59;;;;;;;;;;;21.50;46.30;;;;;;4946002;28;45242;-60
2023/04/25 06:47:24;;;;;;;;;;;21.60;46.30;;;;;;4948546;28;44989;-60
2023/04/25 06:49:50;;;;;;;;;;;21.70;46.20;;;;;;4943379;28;46485;-59
2023/04/25 06:52:17;;;;;;;;;;;21.80;46.20;;;;;;4935291;28;45336;-59
2023/04/25 06:54:43;;;;;;;;;;;21.90;46.20;;;;;;4944736;28;45924;-59
2023/04/25 06:57:08;;;;;;;;;;;21.90;46.10;;;;;;4935560;28;48851;-58
2023/04/25 06:59:34;;;;;;;;;;;22.00;46.00;;;;;;4945996;28;44899;-60
2023/04/25 07:01:59;;;;;;;;;;;22.10;46.00;;;;;;4951103;28;45311;-59
2023/04/25 07:04:25;;;;;;;;;;;22.20;45.90;;;;;;4962154;28;45333;-60
2023/04/25 07:06:51;;;;;;;;;;;22.30;45.90;;;;;;4938085;28;45555;-60
2023/04/25 07:09:16;;;;;;;;;;;22.40;45.90;;;;;;4944078;28;46003;-61
2023/04/25 07:11:42;;;;;;;;;;;22.50;45.90;;;;;;4954803;28;45330;-59
2023/04/25 07:14:07;;;;;;;;;;;22.50;45.90;;;;;;4950969;28;45290;-60
2023/04/25 07:16:33;;;;;;;;;;;22.60;45.80;;;;;;4938279;28;45537;-59
2023/04/25 07:18:59;;;;;;;;;;;22.60;45.70;;;;;;4949085;28;44816;-60
2023/04/25 07:21:25;;;;;;;;;;;22.60;45.80;;;;;;4954755;28;45415;-60
2023/04/25 07:23:50;;;;;;;;;;;22.60;46.00;;;;;;4932075;28;47600;-59
2023/04/25 07:26:16;;;;;;;;;;;22.70;46.00;;;;;;4926740;28;45476;-60
2023/04/25 07:28:42;;;;;;;;;;;22.80;46.00;;;;;;4947267;28;45284;-60
2023/04/25 07:31:07;;;;;;;;;;;22.80;45.80;;;;;;4953636;28;45615;-60
2023/04/25 07:33:33;;;;;;;;;;;23.00;45.80;;;;;;4943937;28;45523;-60
2023/04/25 07:35:58;;;;;;;;;;;23.00;45.70;;;;;;4955494;28;45397;-61
2023/04/25 07:38:24;;;;;;;;;;;23.10;45.60;;;;;;4945560;28;45443;-61
2023/04/25 07:40:49;;;;;;;;;;;23.20;45.60;;;;;;4957033;28;45319;-61
2023/04/25 07:43:16;;;;;;;;;;;23.30;45.70;;;;;;4933601;28;46246;-62
2023/04/25 07:45:42;;;;;;;;;;;23.30;45.40;;;;;;4956203;28;45207;-60
2023/04/25 07:48:07;;;;;;;;;;;23.30;45.50;;;;;;4963169;28;45334;-60
2023/04/25 07:50:33;;;;;;;;;;;23.30;45.60;;;;;;4954710;28;45547;-60
2023/04/25 07:52:58;;;;;;;;;;;23.20;45.80;;;;;;4950174;28;45274;-60
2023/04/25 07:55:24;;;;;;;;;;;23.30;45.80;;;;;;4910773;28;45520;-61
2023/04/25 07:57:49;;;;;;;;;;;23.40;45.80;;;;;;4964997;28;45701;-60
2023/04/25 08:00:15;;;;;;;;;;;23.50;45.70;;;;;;4942181;28;45721;-61
2023/04/25 08:02:40;;;;;;;;;;;23.50;45.60;;;;;;4945545;28;45817;-60
2023/04/25 08:05:08;;;;;;;;;;;23.60;45.50;;;;;;4954429;28;45713;-61
2023/04/25 08:07:33;;;;;;;;;;;23.70;45.40;;;;;;4942938;28;44840;-59
2023/04/25 08:09:59;;;;;;;;;;;23.80;45.50;;;;;;4944507;28;46784;-61
2023/04/25 08:12:24;;;;;;;;;;;23.90;45.40;;;;;;4953991;28;45155;-60
2023/04/25 08:14:50;;;;;;;;;;;23.80;45.30;;;;;;4964230;28;45379;-61
2023/04/25 08:17:16;;;;;;;;;;;23.80;45.40;;;;;;4949240;28;45538;-60
2023/04/25 08:19:41;;;;;;;;;;;23.70;45.50;;;;;;4960076;28;46432;-61
2023/04/25 08:22:07;;;;;;;;;;;23.70;45.70;;;;;;4954700;28;45311;-59
2023/04/25 08:24:32;;;;;;;;;;;23.80;45.80;;;;;;4962224;28;45433;-61
2023/04/25 08:26:58;;;;;;;;;;;23.90;45.70;;;;;;4959664;28;45545;-61
2023/04/25 08:29:25;;;;;;;;;;;24.00;45.60;;;;;;4959056;28;45635;-61
2023/04/25 08:31:52;;;;;;;;;;;24.10;45.40;;;;;;4917541;28;45639;-61
2023/04/25 08:34:18;;;;;;;;;;;24.20;45.30;;;;;;4960667;28;45261;-61
2023/04/25 08:36:43;;;;;;;;;;;24.30;45.30;;;;;;4941362;28;44903;-61
2023/04/25 08:39:09;;;;;;;;;;;24.30;45.20;;;;;;4925504;28;46809;-61
2023/04/25 08:41:36;;;;;;;;;;;24.30;45.10;;;;;;4954685;28;45108;-60
2023/04/25 08:44:01;;;;;;;;;;;24.30;45.20;;;;;;4945848;28;45223;-60
2023/04/25 08:46:27;;;;;;;;;;;24.20;45.40;;;;;;4938547;28;44984;-59
2023/04/25 08:48:52;;;;;;;;;;;24.10;45.50;;;;;;4925896;28;47116;-61
2023/04/25 08:51:22;;;;;;;;;;;24.10;45.60;;;;;;4937640;28;45620;-61
2023/04/25 08:53:48;;;;;;;;;;;24.10;45.70;;;;;;4960192;28;45034;-61
2023/04/25 08:56:14;;;;;;;;;;;24.20;45.70;;;;;;4957192;28;45444;-60
2023/04/25 08:58:39;;;;;;;;;;;24.30;45.60;;;;;;4948270;28;46295;-59
2023/04/25 09:01:05;;;;;;;;;;;24.40;45.50;;;;;;4934837;28;45209;-59
2023/04/25 09:03:31;;;;;;;;;;;24.50;45.40;;;;;;4940674;28;45415;-60
2023/04/25 09:05:56;;;;;;;;;;;24.60;45.30;;;;;;4951458;28;45193;-59
2023/04/25 09:08:22;;;;;;;;;;;24.60;45.10;;;;;;4947425;28;45359;-60
2023/04/25 09:10:47;;;;;;;;;;;24.70;45.10;;;;;;4951877;28;45986;-61
2023/04/25 09:13:14;;;;;;;;;;;24.60;45.20;;;;;;4963212;28;45461;-61
2023/04/25 09:15:51;;;;;;;;;;;24.60;45.20;;;;;;4919450;28;45584;-60
2023/04/25 09:18:29;;;;;;;;;;;24.60;45.40;;;;;;4959262;28;46841;-61
2023/04/25 09:20:55;;;;;;;;;;;24.50;45.40;;;;;;4954922;28;46124;-60
2023/04/25 09:23:21;;;;;;;;;;;24.50;45.60;;;;;;4962018;28;45097;-61
2023/04/25 09:25:47;;;;;;;;;;;24.50;45.70;;;;;;4938090;28;45483;-61
2023/04/25 09:28:13;;;;;;;;;;;24.60;45.70;;;;;;4961330;28;46437;-61
2023/04/25 09:30:38;;;;;;;;;;;24.60;46.20;;;;;;4923279;28;45109;-61
2023/04/25 09:33:04;;;;;;;;;;;24.80;45.50;;;;;;4942997;28;45481;-60
2023/04/25 09:35:30;;;;;;;;;;;24.80;45.30;;;;;;4951254;28;45485;-59
2023/04/25 09:37:55;;;;;;;;;;;24.90;45.10;;;;;;4943617;28;46889;-60
2023/04/25 09:40:21;;;;;;;;;;;25.00;45.00;;;;;;4938942;28;45094;-60
2023/04/25 09:42:46;;;;;;;;;;;25.00;44.90;;;;;;4943778;28;45469;-60
2023/04/25 09:45:12;;;;;;;;;;;25.00;44.70;;;;;;4940509;28;44865;-59
2023/04/25 09:47:38;;;;;;;;;;;24.90;44.80;;;;;;4940345;28;45581;-61
2023/04/25 09:50:04;;;;;;;;;;;24.90;45.00;;;;;;4959918;28;45107;-60
2023/04/25 09:52:30;;;;;;;;;;;24.90;45.10;;;;;;4958248;28;45646;-59
2023/04/25 09:54:55;;;;;;;;;;;24.80;45.20;;;;;;4960404;28;45878;-61
2023/04/25 09:57:22;;;;;;;;;;;24.80;45.30;;;;;;4923733;28;46116;-59
2023/04/25 09:59:48;;;;;;;;;;;24.80;45.50;;;;;;4944448;28;45204;-60
2023/04/25 10:02:14;;;;;;;;;;;24.80;45.60;;;;;;4949971;28;45756;-61
2023/04/25 10:04:40;;;;;;;;;;;24.80;45.70;;;;;;4959957;28;45750;-59
2023/04/25 10:07:06;;;;;;;;;;;24.80;45.50;;;;;;4936007;28;46466;-60
2023/04/25 10:09:33;;;;;;;;;;;24.90;45.40;;;;;;4960079;28;45109;-60
2023/04/25 10:11:59;;;;;;;;;;;24.90;45.30;;;;;;4958153;28;45304;-60
2023/04/25 10:14:25;;;;;;;;;;;25.00;45.10;;;;;;4949039;28;45615;-60
2023/04/25 10:16:53;;;;;;;;;;;25.10;45.00;;;;;;4941750;28;45624;-60
2023/04/25 10:19:22;;;;;;;;;;;25.10;44.90;;;;;;4930111;28;44687;-60
2023/04/25 10:21:55;;;;;;;;;;;25.20;44.90;;;;;;4954039;28;45417;-61
2023/04/25 10:24:21;;;;;;;;;;;25.20;44.90;;;;;;4938290;28;45299;-60
2023/04/25 10:26:47;;;;;;;;;;;25.10;44.90;;;;;;4962888;28;45436;-60
2023/04/25 10:29:12;;;;;;;;;;;25.10;45.10;;;;;;4965762;28;45564;-60
2023/04/25 10:31:44;;;;;;;;;;;25.00;45.10;;;;;;4959042;28;46597;-60
2023/04/25 10:34:10;;;;;;;;;;;24.90;45.30;;;;;;4964387;28;46180;-61
2023/04/25 10:36:37;;;;;;;;;;;24.90;45.40;;;;;;4963063;28;45504;-60
2023/04/25 10:39:11;;;;;;;;;;;24.80;45.60;;;;;;4968158;28;45069;-59
2023/04/25 10:41:47;;;;;;;;;;;24.80;45.60;;;;;;4961265;28;44955;-60
2023/04/25 10:44:12;;;;;;;;;;;24.90;45.50;;;;;;4951745;28;45528;-60
2023/04/25 10:46:38;;;;;;;;;;;25.00;45.30;;;;;;4942770;28;45423;-60
2023/04/25 10:49:03;;;;;;;;;;;25.00;45.20;;;;;;4968034;28;45398;-60
2023/04/25 10:51:32;;;;;;;;;;;25.10;45.10;;;;;;4961379;28;45274;-60
2023/04/25 10:54:01;;;;;;;;;;;25.10;45.30;;;;;;4935315;28;44884;-60
2023/04/25 10:56:40;;;;;;;;;;;25.00;45.10;;;;;;4945883;28;47304;-60
2023/04/25 10:59:09;;;;;;;;;;;25.00;45.20;;;;;;4968953;28;45399;-59
2023/04/25 11:01:45;;;;;;;;;;;24.90;45.30;;;;;;4940643;28;45270;-59
2023/04/25 11:04:33;;;;;;;;;;;24.90;45.40;;;;;;4966795;28;45369;-59
2023/04/25 11:07:08;;;;;;;;;;;24.80;45.50;;;;;;4961283;28;46789;-60
2023/04/25 11:09:34;;;;;;;;;;;24.80;45.60;;;;;;4951290;28;45413;-59
2023/04/25 11:12:00;;;;;;;;;;;24.80;45.70;;;;;;4930038;28;46213;-58
2023/04/25 11:14:25;;;;;;;;;;;24.70;45.70;;;;;;4951166;28;45338;-58
2023/04/25 11:16:55;;;;;;;;;;;24.70;45.70;;;;;;4954209;28;46497;-57
2023/04/25 11:19:21;;;;;;;;;;;24.70;45.80;;;;;;4951294;28;45530;-57
2023/04/25 11:21:46;;;;;;;;;;;24.70;45.90;;;;;;4962199;28;45678;-59
2023/04/25 11:24:12;;;;;;;;;;;24.70;45.90;;;;;;4936840;28;45660;-59
2023/04/25 11:26:37;;;;;;;;;;;24.60;45.90;;;;;;4961541;28;45208;-58
2023/04/25 11:29:03;;;;;;;;;;;24.60;46.00;;;;;;4964275;28;44694;-60
2023/04/25 11:31:28;;;;;;;;;;;24.60;46.10;;;;;;4939833;28;45518;-60
2023/04/25 11:33:55;;;;;;;;;;;24.60;46.10;;;;;;4933334;28;45473;-60
2023/04/25 11:36:20;;;;;;;;;;;24.50;46.10;;;;;;4942488;28;45352;-60
2023/04/25 11:38:45;;;;;;;;;;;24.50;46.10;;;;;;4966972;28;45552;-59
2023/04/25 11:41:11;;;;;;;;;;;24.50;46.20;;;;;;4962112;28;45277;-59
2023/04/25 11:43:37;;;;;;;;;;;24.50;46.20;;;;;;4967397;28;45700;-61
2023/04/25 11:46:06;;;;;;;;;;;24.50;46.30;;;;;;4964508;28;45624;-60
2023/04/25 11:48:36;;;;;;;;;;;24.40;46.30;;;;;;4952609;28;45390;-61
2023/04/25 11:51:02;;;;;;;;;;;24.40;46.30;;;;;;4946261;28;45354;-61
2023/04/25 11:53:28;;;;;;;;;;;24.40;46.40;;;;;;4954786;28;45645;-60
2023/04/25 11:55:53;;;;;;;;;;;24.40;46.40;;;;;;4964917;28;45536;-60
2023/04/25 11:58:19;;;;;;;;;;;24.40;46.50;;;;;;4953835;28;45653;-59
2023/04/25 12:00:44;;;;;;;;;;;24.40;46.50;;;;;;4961486;28;45269;-59
2023/04/25 12:03:10;;;;;;;;;;;24.30;46.50;;;;;;4970417;28;45466;-60
2023/04/25 12:05:37;;;;;;;;;;;24.30;46.50;;;;;;4965831;28;45211;-59
2023/04/25 12:08:10;;;;;;;;;;;24.30;46.60;;;;;;4951620;28;45281;-60
2023/04/25 12:10:37;;;;;;;;;;;24.30;46.60;;;;;;4946009;28;45377;-59
2023/04/25 12:13:16;;;;;;;;;;;24.30;46.70;;;;;;4937154;28;45635;-60
2023/04/25 12:15:42;;;;;;;;;;;24.20;46.70;;;;;;4945636;28;46277;-57
2023/04/25 12:18:07;;;;;;;;;;;24.20;46.70;;;;;;4969984;28;45528;-59
2023/04/25 12:20:33;;;;;;;;;;;24.20;46.70;;;;;;4947732;28;45352;-60
2023/04/25 12:22:58;;;;;;;;;;;24.20;46.80;;;;;;4972072;28;44785;-59
2023/04/25 12:25:36;;;;;;;;;;;24.10;46.70;;;;;;4967614;28;45909;-59
2023/04/25 12:28:14;;;;;;;;;;;24.10;46.80;;;;;;4968691;28;45464;-58
2023/04/25 12:30:56;;;;;;;;;;;24.10;46.80;;;;;;4944331;28;45258;-60
2023/04/25 12:33:22;;;;;;;;;;;24.10;46.90;;;;;;4952683;28;45523;-59
2023/04/25 12:35:47;;;;;;;;;;;24.10;46.90;;;;;;4956990;28;46480;-58
2023/04/25 12:38:29;;;;;;;;;;;24.00;46.90;;;;;;4967069;28;44681;-59
2023/04/25 12:40:55;;;;;;;;;;;24.00;47.00;;;;;;4966333;28;45690;-59
2023/04/25 12:43:21;;;;;;;1.47;0.60;;;24.00;47.00;;;;;;4953936;28;44864;-59
2023/04/25 12:45:51;;;;;;;3.63;0.65;;;24.00;47.10;;;;;;4946295;28;45763;-58
2023/04/25 12:48:17;;;;;;;1.20;0.60;;;24.00;47.10;;;;;;4931065;28;45184;-61
2023/04/25 12:50:43;;;;;;;2.70;0.50;;;24.00;47.10;;;;;;4931890;28;45339;-60
2023/04/25 12:53:08;;;;;;;3.17;1.00;;;24.00;47.20;;;;;;4952072;28;44733;-58
2023/04/25 12:55:34;;;;;;;2.15;0.73;;;24.20;47.00;;;;;;4962337;28;45771;-61
2023/04/25 12:57:59;;;;;;;2.00;0.60;;;24.30;46.90;;;;;;4950096;28;45308;-59
2023/04/25 13:00:26;;;;;;;1.30;0.77;;;24.30;46.70;;;;;;4944135;28;45613;-58
2023/04/25 13:02:52;;;;;;;1.98;0.80;;;24.40;46.60;;;;;;4947634;28;45333;-58
2023/04/25 13:05:17;;;;;;;1.77;0.80;;;24.40;46.50;;;;;;4945771;28;46452;-60
2023/04/25 13:07:43;;;;;;;3.65;0.82;;;24.40;46.40;;;;;;4966435;28;45510;-60
2023/04/25 13:10:10;;;;;;;1.02;0.70;;;24.50;46.20;;;;;;4965769;28;45274;-63
2023/04/25 13:12:35;;;;;;;1.30;0.73;;;24.50;46.00;;;;;;4950815;28;44813;-62
2023/04/25 13:15:01;;;;;;;1.87;0.90;;;24.60;46.00;;;;;;4970346;28;45449;-60
2023/04/25 13:17:26;;;;;;;1.47;0.80;;;24.60;45.90;;;;;;4958629;28;45578;-61
2023/04/25 13:19:52;;;;;;;0.83;0.70;;;24.60;45.90;;;;;;4950192;28;45606;-59
2023/04/25 13:22:19;;;;;;;1.10;0.80;;;24.60;45.80;;;;;;4931097;28;45337;-59
2023/04/25 13:24:45;;;;;;;2.80;1.00;;;24.60;45.80;;;;;;4967630;28;45438;-60
2023/04/25 13:27:11;;;;;;;1.90;0.90;;;24.60;45.80;;;;;;4945258;28;45312;-60
2023/04/25 13:29:38;;;;;;;1.93;0.90;;;24.60;45.70;;;;;;4969658;28;44815;-61
2023/04/25 13:32:03;;;;;;;1.27;0.60;;;24.60;45.70;;;;;;4940160;28;45303;-59
2023/04/25 13:34:30;;;;;;;0.83;0.73;;;24.60;45.60;;;;;;4935061;28;45454;-60
2023/04/25 13:36:56;;;;;;;1.05;0.75;;;24.60;45.60;;;;;;4961482;28;45297;-59
2023/04/25 13:39:21;;;;;;;0.57;0.57;;;24.60;45.60;;;;;;4948911;28;45243;-60
2023/04/25 13:41:47;;;;;;;2.30;0.80;;;24.60;45.60;;;;;;4945691;28;45399;-58
2023/04/25 13:44:12;;;;;;;0.97;0.80;;;24.60;45.60;;;;;;4936778;28;45553;-58
2023/04/25 13:46:38;;;;;;;0.90;0.50;;;24.60;45.60;;;;;;4957748;28;45631;-60
2023/04/25 13:49:04;;;;;;;0.65;0.65;;;24.60;45.60;;;;;;4967415;28;45458;-59
2023/04/25 13:51:30;;;;;;;0.67;0.67;;;24.60;45.50;;;;;;4961097;28;45359;-59
2023/04/25 13:53:56;;;;;;;2.35;0.90;;;24.60;45.60;;;;;;4948336;28;45913;-59
2023/04/25 13:56:23;;;;;;;1.10;0.80;;;24.60;45.60;;;;;;4960215;28;45293;-61
2023/04/25 13:58:54;;;;;;;1.70;0.80;;;24.60;45.60;;;;;;4935603;28;45319;-59
2023/04/25 14:01:20;;;;;;;2.27;0.77;;;24.60;45.60;;;;;;4925327;28;45331;-60
2023/04/25 14:03:46;;;;;;;1.08;0.80;;;24.60;45.60;;;;;;4964723;28;46268;-60
2023/04/25 14:06:12;;;;;;;1.58;1.10;;;24.60;45.70;;;;;;4957914;28;45274;-58
2023/04/25 14:08:38;;;;;;;1.83;0.70;;;24.50;45.60;;;;;;4967855;28;45241;-61
2023/04/25 14:11:04;;;;;;;0.73;0.70;;;24.50;45.60;;;;;;4940267;28;45215;-61
2023/04/25 14:13:29;;;;;;;1.30;0.80;;;24.50;45.60;;;;;;4950525;28;45546;-61
2023/04/25 14:15:55;;;;;;;1.77;0.80;;;24.50;45.70;;;;;;4954520;28;45264;-59
2023/04/25 14:18:20;;;;;;;0.88;0.80;;;24.50;45.70;;;;;;4946145;28;45212;-59
2023/04/25 14:20:46;;;;;;;2.20;0.60;;;24.50;45.70;;;;;;4963412;28;45636;-61
2023/04/25 14:23:12;;;;;;;1.17;0.70;;;24.50;45.70;;;;;;4962519;28;48213;-61
2023/04/25 14:25:37;;;;;;;2.10;1.10;;;24.50;45.80;;;;;;4961396;28;45993;-61
2023/04/25 14:28:03;;;;;;;1.38;0.80;;;24.40;45.70;;;;;;4965326;28;45828;-61
2023/04/25 14:30:28;;;;;;;0.80;0.70;;;24.40;45.80;;;;;;4943348;28;45445;-63
2023/04/25 14:32:54;;;;;;;1.77;0.88;;;24.40;45.80;;;;;;4947508;28;45878;-61
2023/04/25 14:35:20;;;;;;;1.20;0.80;;;24.40;45.80;;;;;;4942783;28;44843;-62
2023/04/25 14:37:46;;;;;;;1.05;0.82;;;24.40;45.80;;;;;;4949323;28;45532;-60
2023/04/25 14:40:12;;;;;;;1.70;0.80;;;24.40;45.80;;;;;;4945232;28;45320;-60
2023/04/25 14:42:39;;;;;;;1.85;0.90;;;24.40;45.80;;;;;;4948117;28;45992;-61
2023/04/25 14:45:06;;;;;;;1.20;0.80;;;24.40;45.80;;;;;;4966965;28;45190;-62
2023/04/25 14:47:32;;;;;;;1.30;0.80;;;24.40;45.80;;;;;;4945006;28;45224;-60
2023/04/25 14:49:57;;;;;;;0.93;0.70;;;24.40;45.80;;;;;;4946469;28;45246;-60
2023/04/25 14:52:23;;;;;;;1.92;0.70;;;24.40;45.80;;;;;;4944805;28;46134;-61
2023/04/25 14:54:49;;;;;;;1.40;0.85;;;24.30;45.70;;;;;;4947081;28;45320;-60
2023/04/25 14:57:15;;;;;;;1.42;0.77;;;24.30;45.80;;;;;;4960190;28;45147;-61
2023/04/25 14:59:41;;;;;;;1.40;0.90;;;24.30;45.80;;;;;;4969278;28;45405;-60
2023/04/25 15:02:06;;;;;;;1.08;0.80;;;24.30;45.80;;;;;;4955315;28;45531;-58
2023/04/25 15:04:32;;;;;;;2.35;1.00;;;24.30;45.80;;;;;;4968776;28;45187;-59
2023/04/25 15:06:58;;;;;;;1.20;0.90;;;24.30;45.80;;;;;;4961266;28;45498;-61
2023/04/25 15:09:24;;;;;;;0.70;0.60;;;24.30;45.90;;;;;;4965614;28;46395;-61
2023/04/25 15:11:50;;;;;;;2.63;0.80;;;24.20;45.80;;;;;;4944432;28;45615;-61
2023/04/25 15:14:17;;;;;;;1.50;1.10;;;24.20;45.90;;;;;;4948390;28;45225;-60
2023/04/25 15:16:42;;;;;;;1.17;0.82;;;24.20;45.90;;;;;;4941650;28;45265;-58
2023/04/25 15:19:08;;;;;;;2.10;0.80;;;24.20;45.90;;;;;;4966971;28;45848;-61
2023/04/25 15:21:33;;;;;;;1.00;0.80;;;24.20;45.90;;;;;;4944148;28;45319;-61
2023/04/25 15:23:59;;;;;;;0.87;0.70;;;24.20;45.90;;;;;;4969010;28;45564;-59
2023/04/25 15:26:25;;;;;;;0.95;0.80;;;24.20;45.90;;;;;;4962053;28;45679;-62
2023/04/25 15:28:52;;;;;;;1.40;0.80;;;24.20;45.90;;;;;;4952772;28;45286;-61
2023/04/25 15:31:17;;;;;;;0.77;0.63;;;24.10;45.90;;;;;;4926392;28;46290;-59
2023/04/25 15:33:43;;;;;;;1.30;0.90;;;24.10;45.90;;;;;;4968188;28;46269;-60
2023/04/25 15:36:10;;;;;;;1.37;0.70;;;24.10;45.90;;;;;;4945754;28;46422;-61
2023/04/25 15:38:35;;;;;;;1.00;0.80;;;24.10;45.90;;;;;;4951795;28;45264;-60
2023/04/25 15:41:01;;;;;;;1.20;0.80;;;24.10;45.90;;;;;;4908608;28;46740;-59
2023/04/25 15:43:26;;;;;;;1.13;0.70;;;24.10;46.00;;;;;;4971265;28;45229;-60
2023/04/25 15:45:52;;;;;;;0.63;0.63;;;24.10;46.00;;;;;;4960606;28;45340;-60
2023/04/25 15:48:17;;;;;;;1.00;0.70;;;24.10;46.00;;;;;;4969262;28;46330;-60
2023/04/25 15:50:43;;;;;;;1.27;1.00;;;24.00;45.90;;;;;;4945668;28;45789;-60
2023/04/25 15:53:09;;;;;;;1.20;0.80;;;24.00;46.00;;;;;;4931771;28;45282;-59
2023/04/25 15:55:35;;;;;;;1.20;0.90;;;24.00;46.00;;;;;;4943883;28;45346;-59
2023/04/25 15:58:00;;;;;;;2.50;0.80;;;24.00;46.00;;;;;;4952986;28;45409;-60
2023/04/25 16:00:26;;;;;;;1.07;0.80;;;24.00;46.10;;;;;;4926606;28;46104;-60
2023/04/25 16:02:51;;;;;;;1.37;1.03;;;23.90;46.00;;;;;;4931813;28;45251;-61
2023/04/25 16:05:17;;;;;;;1.47;0.83;;;23.90;46.00;;;;;;4945291;28;45354;-58
2023/04/25 16:07:43;;;;;;;0.80;0.80;;;23.90;46.00;;;;;;4965741;28;46007;-60
2023/04/25 16:10:10;;;;;;;1.05;0.68;;;23.90;46.00;;;;;;4945957;28;45294;-61
2023/04/25 16:12:36;;;;;;;0.98;0.60;;;23.90;46.00;;;;;;4969726;28;44704;-62
2023/04/25 16:15:02;;;;;;;1.20;0.80;;;23.90;46.10;;;;;;4965032;28;45731;-60
2023/04/25 16:17:28;;;;;;;0.80;0.68;;;23.80;46.10;;;;;;4938574;28;45698;-60
2023/04/25 16:19:55;;;;;;;1.08;0.70;;;23.80;46.10;;;;;;4956119;28;45468;-59
2023/04/25 16:22:20;;;;;;;1.00;0.80;;;23.80;46.10;;;;;;4957401;28;45249;-61
2023/04/25 16:24:46;;;;;;;0.70;0.70;;;23.80;46.20;;;;;;4926983;28;46671;-61
2023/04/25 16:27:12;;;;;;;0.70;0.70;;;23.80;46.20;;;;;;4935159;28;45456;-59
2023/04/25 16:29:37;;;;;;;1.20;0.83;;;23.80;46.20;;;;;;4954830;28;45456;-58
2023/04/25 16:32:03;;;;;;;2.90;1.00;;;23.70;46.20;;;;;;4938138;28;45416;-61
2023/04/25 16:34:28;;;;;;;0.82;0.80;;;23.70;46.10;;;;;;4947175;28;45109;-59
2023/04/25 16:36:55;;;;;;;1.10;0.73;;;23.70;46.20;;;;;;4960500;28;45293;-60
2023/04/25 16:39:23;;;;;;;1.10;0.85;;;23.70;46.20;;;;;;4944485;28;45270;-58
2023/04/25 16:41:48;;;;;;;0.88;0.70;;;23.70;46.80;;;;;;4960746;28;45333;-61
2023/04/25 16:44:14;;;;;;;1.80;0.70;;;23.70;46.20;;;;;;4965246;28;45425;-61